Terminal Aerodrome Forecast
Issued by NWS

Home | Current Version | Previous Version | Graphics & Text | Print | Product List | Glossary On
Versions: 1 2 3 4 5 6 7 8 9 10 11 12 13 14 15 16 17 18 19 20 21 22 23 24
536
FTUS43 KGRB 171129
TAFRHI
TAF
KRHI 171129Z 1712/1812 24007KT P6SM SCT250
     FM172300 22004KT P6SM SCT250
     FM180900 21006KT P6SM SKC WS020/24030KT=

USA.gov is the U.S. government's official web portal to all federal, state and local government web resources and services.